Time;durP1;ratioP1;P1;durP2;ratioP2;P2;SDS_P1;SDS_P2;PMS_P1;PMS_P2;Temp;Humidity;BMP_temperature;BMP_pressure;BME280_temperature;BME280_humidity;BME280_pressure;Samples;Min_cycle;Max_cycle;Signal;HPM_P1;HPM_P2
2022/12/10 00:06:04;;;;;;;36.60;16.17;;;;;;;1.07;100.00;99249.34;21010783;28;20045;-72
2022/12/10 00:16:05;;;;;;;40.33;19.42;;;;;;;1.01;100.00;99263.06;20977468;28;20056;-73
2022/12/10 00:26:06;;;;;;;47.67;19.55;;;;;;;1.12;100.00;99261.38;20881407;28;20045;-73
2022/12/10 00:36:08;;;;;;;43.88;19.35;;;;;;;1.00;100.00;99266.47;20942575;28;20044;-74
2022/12/10 00:46:09;;;;;;;39.10;18.77;;;;;;;1.00;100.00;99257.03;20964155;28;20048;-74
2022/12/10 00:56:10;;;;;;;39.15;18.90;;;;;;;0.96;100.00;99269.91;20974741;28;20143;-73
2022/12/10 01:06:11;;;;;;;38.03;18.00;;;;;;;0.92;100.00;99269.03;20922399;28;20503;-73
2022/12/10 01:16:13;;;;;;;43.35;18.30;;;;;;;0.85;100.00;99276.72;21048913;28;20052;-72
2022/12/10 01:26:14;;;;;;;41.83;18.67;;;;;;;0.86;100.00;99293.88;21056061;28;20139;-74
2022/12/10 01:36:15;;;;;;;40.40;18.70;;;;;;;0.87;100.00;99298.22;21055535;28;20097;-73
2022/12/10 01:46:17;;;;;;;39.03;18.65;;;;;;;0.82;100.00;99307.63;21055580;28;20055;-74
2022/12/10 01:56:18;;;;;;;45.60;21.30;;;;;;;0.92;100.00;99310.25;21055619;28;20060;-74
2022/12/10 02:06:19;;;;;;;47.35;22.15;;;;;;;0.72;100.00;99306.72;21002330;28;20497;-74
2022/12/10 02:16:21;;;;;;;45.00;19.98;;;;;;;0.73;100.00;99318.75;20970350;28;20079;-74
2022/12/10 02:26:22;;;;;;;39.25;19.85;;;;;;;0.65;100.00;99313.53;20903526;28;20057;-74
2022/12/10 02:36:23;;;;;;;45.03;19.98;;;;;;;0.69;100.00;99304.97;20953978;28;20059;-74
2022/12/10 02:46:25;;;;;;;44.42;19.67;;;;;;;0.60;100.00;99294.59;20976187;28;20677;-74
2022/12/10 02:56:26;;;;;;;41.55;18.55;;;;;;;0.58;100.00;99291.19;20967762;28;20064;-73
2022/12/10 03:06:27;;;;;;;43.92;21.40;;;;;;;0.64;100.00;99308.38;20981160;28;20463;-73
2022/12/10 03:16:28;;;;;;;42.33;20.27;;;;;;;0.51;100.00;99297.97;21062734;28;20056;-74
2022/12/10 03:26:30;;;;;;;45.03;20.13;;;;;;;0.32;100.00;99301.28;21063867;28;20139;-73
2022/12/10 03:36:31;;;;;;;48.50;20.60;;;;;;;0.42;100.00;99308.22;21063216;28;20056;-74
2022/12/10 03:46:32;;;;;;;48.05;20.92;;;;;;;0.44;100.00;99305.66;21063937;28;20048;-73
2022/12/10 03:56:34;;;;;;;45.70;21.50;;;;;;;0.50;100.00;99305.69;21039767;28;20393;-73
2022/12/10 04:06:35;;;;;;;49.38;20.90;;;;;;;0.42;100.00;99318.50;21059433;28;20052;-74
2022/12/10 04:16:36;;;;;;;47.28;20.13;;;;;;;0.49;100.00;99327.16;20977627;28;20049;-74
2022/12/10 04:26:53;;;;;;;47.13;20.27;;;;;;;0.34;100.00;99329.63;20974959;28;20152;-73
2022/12/10 04:36:54;;;;;;;49.38;21.33;;;;;;;0.34;100.00;99335.63;20917619;28;20578;-73
2022/12/10 04:46:55;;;;;;;48.30;21.17;;;;;;;0.24;100.00;99331.25;20891592;28;20048;-73
2022/12/10 04:56:57;;;;;;;51.95;21.75;;;;;;;0.26;100.00;99337.28;20891561;28;20040;-73
2022/12/10 05:06:58;;;;;;;49.42;21.90;;;;;;;0.32;100.00;99326.16;20891406;28;20056;-75
2022/12/10 05:17:00;;;;;;;50.80;21.80;;;;;;;0.20;100.00;99343.22;20952194;28;20052;-74
2022/12/10 05:27:01;;;;;;;50.90;21.55;;;;;;;0.12;100.00;99356.88;20973126;28;20067;-74
2022/12/10 05:37:03;;;;;;;50.92;21.60;;;;;;;0.20;100.00;99353.53;20971966;28;20409;-74
2022/12/10 05:47:04;;;;;;;50.10;21.52;;;;;;;0.05;100.00;99371.41;20970589;28;20118;-75
2022/12/10 05:57:05;;;;;;;54.00;21.88;;;;;;;0.07;100.00;99374.84;20976874;28;20052;-74
2022/12/10 06:07:06;;;;;;;48.75;20.13;;;;;;;0.08;100.00;99374.00;20985911;28;20059;-73
2022/12/10 06:17:11;;;;;;;49.03;20.75;;;;;;;0.05;100.00;99383.38;20984009;28;20066;-74
2022/12/10 06:27:12;;;;;;;47.88;21.67;;;;;;;-0.07;100.00;99394.44;20984385;28;20669;-74
2022/12/10 06:37:14;;;;;;;53.33;22.67;;;;;;;0.06;100.00;99406.59;20924298;28;20079;-75
2022/12/10 06:47:15;;;;;;;49.92;20.25;;;;;;;-0.05;100.00;99423.59;20901127;28;20053;-74
2022/12/10 06:57:16;;;;;;;49.67;20.98;;;;;;;0.03;100.00;99427.13;20900265;28;20045;-74
2022/12/10 07:07:17;;;;;;;49.88;21.42;;;;;;;0.03;100.00;99439.13;20907994;28;20934;-74
2022/12/10 07:17:19;;;;;;;45.95;21.52;;;;;;;-0.01;100.00;99445.94;21064053;28;20056;-74
2022/12/10 07:27:20;;;;;;;47.17;20.85;;;;;;;-0.05;100.00;99455.38;21064474;28;20550;-74
2022/12/10 07:37:21;;;;;;;45.45;20.80;;;;;;;0.02;100.00;99466.56;21060135;28;20093;-72
2022/12/10 07:47:22;;;;;;;41.78;19.63;;;;;;;-0.06;100.00;99475.91;21059934;28;20109;-71
2022/12/10 07:57:24;;;;;;;44.10;19.30;;;;;;;0.04;100.00;99475.16;21061896;28;20497;-72
2022/12/10 08:07:25;;;;;;;40.50;19.33;;;;;;;-0.06;100.00;99483.63;20999059;28;20053;-72
2022/12/10 08:17:26;;;;;;;37.05;17.80;;;;;;;-0.04;100.00;99487.09;20975837;28;20708;-72
2022/12/10 08:27:27;;;;;;;35.85;16.45;;;;;;;0.01;100.00;99494.88;20975440;28;20052;-71
2022/12/10 08:37:29;;;;;;;38.85;18.25;;;;;;;0.13;100.00;99513.03;20971327;28;20059;-71
2022/12/10 08:47:30;;;;;;;36.08;16.50;;;;;;;0.31;100.00;99526.13;20970821;28;20110;-72
2022/12/10 08:57:31;;;;;;;33.95;15.35;;;;;;;0.18;100.00;99525.09;20969638;28;20060;-72
2022/12/10 09:07:32;;;;;;;34.78;16.42;;;;;;;0.19;100.00;99529.41;20964561;28;20056;-72
2022/12/10 09:17:34;;;;;;;33.75;15.60;;;;;;;0.28;100.00;99531.22;20889671;28;20061;-72
2022/12/10 09:27:35;;;;;;;38.05;16.65;;;;;;;0.28;100.00;99541.50;20892191;28;20098;-72
2022/12/10 09:37:36;;;;;;;33.85;17.98;;;;;;;0.43;100.00;99551.13;20905968;28;20052;-73
2022/12/10 09:47:38;;;;;;;28.75;14.55;;;;;;;0.38;100.00;99561.38;20905665;28;20107;-73
2022/12/10 09:57:39;;;;;;;28.92;14.60;;;;;;;0.58;100.00;99556.47;20904982;28;20072;-71
2022/12/10 10:07:40;;;;;;;29.02;13.90;;;;;;;0.69;100.00;99564.31;20911673;28;20053;-72
2022/12/10 10:17:45;;;;;;;26.98;13.38;;;;;;;0.83;100.00;99570.47;20986270;28;20076;-72
2022/12/10 10:27:46;;;;;;;27.58;15.20;;;;;;;1.01;100.00;99559.47;20986165;28;20056;-72
2022/12/10 10:37:48;;;;;;;27.85;14.05;;;;;;;1.01;100.00;99556.91;20983801;28;20110;-72
2022/12/10 10:47:49;;;;;;;31.35;15.63;;;;;;;1.20;100.00;99570.81;20983423;28;20422;-72
2022/12/10 10:57:51;;;;;;;31.05;14.98;;;;;;;1.17;100.00;99569.06;20981823;28;20098;-72
2022/12/10 11:07:52;;;;;;;32.78;16.42;;;;;;;1.39;100.00;99587.28;20980759;28;20063;-72
2022/12/10 11:17:55;;;;;;;27.80;13.98;;;;;;;1.47;100.00;99583.06;20972254;28;20052;-72
2022/12/10 11:27:56;;;;;;;27.60;14.30;;;;;;;1.59;100.00;99566.81;20898295;28;20049;-72
2022/12/10 11:37:57;;;;;;;29.45;13.90;;;;;;;1.67;100.00;99571.16;20895395;28;20604;-69
2022/12/10 11:48:03;;;;;;;23.90;12.35;;;;;;;1.33;100.00;99575.19;20894936;28;20045;-72
2022/12/10 11:58:04;;;;;;;22.27;11.45;;;;;;;1.30;100.00;99574.34;20894110;28;20056;-72
2022/12/10 12:08:06;;;;;;;26.17;12.63;;;;;;;1.76;100.00;99576.38;20905995;28;20229;-72
2022/12/10 12:18:07;;;;;;;20.15;11.55;;;;;;;1.77;100.00;99596.19;20976699;28;20163;-72
2022/12/10 12:28:08;;;;;;;19.73;9.57;;;;;;;1.41;100.00;99589.03;20976598;28;20490;-72
2022/12/10 12:38:10;;;;;;;18.33;10.05;;;;;;;1.52;100.00;99596.84;20975503;28;20071;-71
2022/12/10 12:48:11;;;;;;;21.35;10.93;;;;;;;1.74;100.00;99613.38;20972829;28;20060;-72
2022/12/10 12:58:12;;;;;;;23.65;10.73;;;;;;;1.47;100.00;99614.88;20974211;28;20102;-72
2022/12/10 13:08:13;;;;;;;22.33;11.30;;;;;;;1.61;100.00;99627.88;20972527;28;20057;-72
2022/12/10 13:18:17;;;;;;;21.00;11.00;;;;;;;1.49;100.00;99638.13;20973096;28;20079;-72
2022/12/10 13:28:20;;;;;;;27.55;12.57;;;;;;;1.66;100.00;99633.94;20973097;28;20048;-72
2022/12/10 13:38:21;;;;;;;20.70;10.32;;;;;;;1.34;100.00;99650.84;20971471;28;20174;-72
2022/12/10 13:48:23;;;;;;;31.38;14.13;;;;;;;1.36;100.00;99667.22;20972624;28;20441;-72
2022/12/10 13:58:24;;;;;;;28.95;13.40;;;;;;;1.66;100.00;99675.22;20972118;28;20132;-71
2022/12/10 14:08:25;;;;;;;24.23;11.90;;;;;;;1.88;100.00;99678.84;20970698;28;20114;-75
2022/12/10 14:18:27;;;;;;;25.98;13.10;;;;;;;2.00;100.00;99681.50;20979253;28;20052;-75
2022/12/10 14:28:28;;;;;;;19.58;10.55;;;;;;;2.01;100.00;99687.53;20984375;28;20052;-75
2022/12/10 14:38:29;;;;;;;25.30;12.90;;;;;;;1.83;100.00;99700.31;20981402;28;20056;-74
2022/12/10 14:48:31;;;;;;;19.25;9.45;;;;;;;1.76;100.00;99705.41;20986511;28;20143;-75
2022/12/10 14:58:32;;;;;;;25.40;12.05;;;;;;;1.83;100.00;99716.66;20984131;28;20133;-75
2022/12/10 15:08:41;;;;;;;29.30;14.13;;;;;;;1.82;100.00;99724.38;20982415;28;20137;-75
2022/12/10 15:18:43;;;;;;;22.85;11.63;;;;;;;1.69;100.00;99732.03;20981496;28;20692;-74
2022/12/10 15:28:44;;;;;;;23.63;11.68;;;;;;;1.59;100.00;99743.13;20983088;28;20555;-75
2022/12/10 15:38:45;;;;;;;23.10;12.30;;;;;;;1.51;100.00;99752.50;20980893;28;20052;-73
2022/12/10 15:48:47;;;;;;;23.10;11.63;;;;;;;1.38;100.00;99750.63;20979420;28;20059;-73
2022/12/10 15:58:48;;;;;;;26.63;12.65;;;;;;;1.36;100.00;99760.06;20979486;28;20056;-73
2022/12/10 16:08:49;;;;;;;25.30;13.68;;;;;;;1.24;100.00;99763.34;20975381;28;20057;-73
2022/12/10 16:18:51;;;;;;;32.75;16.70;;;;;;;1.25;100.00;99783.16;20975968;28;20102;-72
2022/12/10 16:28:52;;;;;;;25.13;13.52;;;;;;;1.13;100.00;99788.16;20977395;28;20049;-72
2022/12/10 16:38:54;;;;;;;27.80;14.55;;;;;;;1.00;100.00;99797.44;20974752;28;20388;-72
2022/12/10 16:48:55;;;;;;;33.47;15.18;;;;;;;0.98;100.00;99788.84;20975851;28;20412;-72
2022/12/10 16:58:56;;;;;;;69.13;24.98;;;;;;;1.01;100.00;99794.03;20974239;28;20855;-72
2022/12/10 17:08:57;;;;;;;33.97;15.90;;;;;;;1.01;100.00;99794.03;21077824;22;20081;-75
2022/12/10 17:18:59;;;;;;;29.05;15.57;;;;;;;0.91;100.00;99808.50;21006478;28;20048;-73
2022/12/10 17:29:00;;;;;;;51.33;24.20;;;;;;;0.80;100.00;99814.34;20984392;28;20053;-72
2022/12/10 17:39:01;;;;;;;39.75;19.92;;;;;;;0.52;100.00;99826.81;20970053;28;20118;-72
2022/12/10 17:49:03;;;;;;;30.02;14.65;;;;;;;0.25;100.00;99835.84;20972955;28;20061;-73
2022/12/10 17:59:04;;;;;;;38.83;16.42;;;;;;;-0.04;100.00;99837.06;20975823;28;20056;-73
2022/12/10 18:09:05;;;;;;;30.85;15.85;;;;;;;-0.31;100.00;99843.41;20983485;28;20562;-72
2022/12/10 18:19:06;;;;;;;32.92;16.98;;;;;;;-0.58;100.00;99842.88;20983821;28;20053;-72
2022/12/10 18:29:08;;;;;;;45.33;19.63;;;;;;;-0.75;100.00;99849.41;20972169;28;20098;-72
2022/12/10 18:39:09;;;;;;;32.42;15.88;;;;;;;-0.89;100.00;99857.66;20978428;28;20122;-71
2022/12/10 18:49:11;;;;;;;40.42;18.17;;;;;;;-0.98;100.00;99880.59;20981144;28;20643;-71
2022/12/10 18:59:12;;;;;;;43.58;17.35;;;;;;;-1.13;100.00;99880.25;20979129;28;20065;-70
2022/12/10 19:09:14;;;;;;;40.95;19.05;;;;;;;-1.28;100.00;99879.91;20978762;28;20105;-70
2022/12/10 19:19:19;;;;;;;41.83;18.15;;;;;;;-1.26;100.00;99876.53;20979215;28;20113;-71
2022/12/10 19:29:21;;;;;;;41.63;18.38;;;;;;;-1.35;100.00;99874.59;20978576;28;20052;-71
2022/12/10 19:39:22;;;;;;;41.10;19.00;;;;;;;-1.48;100.00;99870.03;20976042;28;20591;-71
2022/12/10 19:49:24;;;;;;;39.63;17.10;;;;;;;-1.69;100.00;99864.38;20976061;28;20106;-71
2022/12/10 19:59:25;;;;;;;38.58;16.40;;;;;;;-1.83;100.00;99867.44;20971439;28;20099;-71
2022/12/10 20:09:26;;;;;;;41.53;17.58;;;;;;;-1.94;100.00;99868.88;21049191;28;20109;-71
2022/12/10 20:19:27;;;;;;;46.90;19.85;;;;;;;-2.04;100.00;99872.03;20996667;28;20056;-71
2022/12/10 20:29:29;;;;;;;50.35;22.17;;;;;;;-2.10;100.00;99889.84;20988885;28;20479;-71
2022/12/10 20:39:30;;;;;;;43.63;19.65;;;;;;;-2.22;100.00;99887.78;20976977;28;20056;-71
2022/12/10 20:49:31;;;;;;;43.05;20.00;;;;;;;-2.29;100.00;99875.66;20978178;28;20056;-71
2022/12/10 20:59:34;;;;;;;52.42;22.42;;;;;;;-2.30;100.00;99885.84;20976656;28;20061;-70
2022/12/10 21:09:35;;;;;;;45.13;21.02;;;;;;;-2.44;100.00;99883.78;20976461;28;20056;-71
2022/12/10 21:19:36;;;;;;;45.05;21.27;;;;;;;-2.47;100.00;99886.25;21056595;28;20048;-71
2022/12/10 21:29:37;;;;;;;57.50;26.15;;;;;;;-2.45;100.00;99887.16;21080847;28;20059;-71
2022/12/10 21:39:39;;;;;;;46.58;22.77;;;;;;;-2.56;100.00;99880.88;21086563;28;20102;-71
2022/12/10 21:49:40;;;;;;;42.67;20.30;;;;;;;-2.66;100.00;99873.75;21087275;28;20052;-71
2022/12/10 21:59:41;;;;;;;41.60;19.92;;;;;;;-2.69;100.00;99868.53;21086837;28;20105;-71
2022/12/10 22:09:43;;;;;;;36.55;17.25;;;;;;;-2.67;100.00;99882.25;21084335;28;20375;-71
2022/12/10 22:19:44;;;;;;;43.40;19.50;;;;;;;-2.62;100.00;99885.81;21077571;28;20052;-71
2022/12/10 22:29:46;;;;;;;45.95;21.83;;;;;;;-2.47;100.00;99876.00;21086262;28;20067;-71
2022/12/10 22:39:47;;;;;;;43.20;21.77;;;;;;;-2.46;100.00;99876.88;21075163;28;20051;-70
2022/12/10 22:49:48;;;;;;;41.63;21.83;;;;;;;-2.52;100.00;99879.28;21071593;28;20412;-70
2022/12/10 22:59:50;;;;;;;39.15;19.50;;;;;;;-2.63;100.00;99864.47;21070465;28;20056;-71
2022/12/10 23:09:51;;;;;;;40.70;18.17;;;;;;;-2.76;100.00;99869.19;21077071;28;20564;-71
2022/12/10 23:19:52;;;;;;;42.30;19.75;;;;;;;-2.86;100.00;99866.34;21047565;28;20060;-71
2022/12/10 23:29:53;;;;;;;45.88;19.70;;;;;;;-3.03;100.00;99854.72;20992199;28;20052;-70
2022/12/10 23:39:55;;;;;;;39.60;18.67;;;;;;;-3.15;100.00;99857.81;21073685;28;20086;-70
2022/12/10 23:49:56;;;;;;;37.40;18.52;;;;;;;-3.25;100.00;99862.59;21073177;28;20056;-69
2022/12/10 23:59:57;;;;;;;41.22;20.52;;;;;;;-3.33;100.00;99858.94;21073120;28;20079;-69
